Martin, Utah
Current Conditions -  °F | °C
As of 7:53 AM on Thursday 30 Oct 2014 (Local Time) from KPUC Reporting Station
Clear Clear  
Wind Chill: -1°   Ceiling: Unl
Heat Index:   Visibility: 10mi
Dew Point: -8°   Wind: 5mph
Humidity: 50%   Direction: 30°NNE
Pressure: 30.34"   Gusts: NA
Location:  39.7304°N, 110.917°W
Report Text: KPUC 301353Z AUTO 03004KT 10SM CLR 02/M08 A3034 RMK AO2 SLP286 T00171078 TSNO
Loading
Personal Weather Stations






























Interactive Weather Map
Tropical Storm Tracking
New forecast layout! Learn more

10-Day Weather Forecast

Advertisements
Track Severe Weather on mobile